Pomona, CA Past Weather

Last 30 Days

High: 56ºf @1:55 PM    Low: 45ºf @4:55 AM     Approx. Precipitation / Rain Total: in.
Time (PST)Temp. (ºf)Humidity (%)Dew Point (ºf)Barometer (inHG)Wind Speed (mph)Wind DirectionWind Gust (mph)1hr. Precip / Rain Total (in.)Snow Depth
4:55 PM536641.95-6.08wsw13.03--
3:55 PM536240.33-7.82w14.77--
2:55 PM556844.63-8.69wsw14.77--
1:55 PM567748.89-6.95w13.9--
12:55 PM547445.9-8.69w14.77--
11:55 AM547947.63-7.82w13.9--
10:55 AM558249.61-7.82wsw15.64--
9:55 AM539050.15-7.82sw13.9--
8:55 AM519750.18-5.21w7.82--
7:55 AM479946.73-3.48sw11.3--
6:55 AM479445.36-6.08wnw8.69--
5:55 AM459944.74-5.21w9.56--
4:55 AM459844.47-5.21w10.43--
3:55 AM469945.73-6.08wsw10.43--
2:55 AM469845.47-5.21w9.56--
1:55 AM469845.47-6.95w11.3--
12:55 AM479846.46-5.21wnw9.56--
High: 52ºf @3:55 PM    Low: 47ºf @11:55 PM     Approx. Precipitation / Rain Total: in.
Time (PST)Temp. (ºf)Humidity (%)Dew Point (ºf)Barometer (inHG)Wind Speed (mph)Wind DirectionWind Gust (mph)1hr. Precip / Rain Total (in.)Snow Depth
11:55 PM479946.73-3.48wsw7.82--
10:55 PM489947.73-5.21wnw11.3--
9:55 PM489847.46-4.34wnw7.82--
8:55 PM489847.46-5.21w9.56--
7:55 PM489747.19-4.34w9.56--
6:55 PM499848.46-3.48wnw11.3--
5:55 PM509849.46-5.21w9.56--
4:55 PM529751.17-2.61wnw9.56--
3:55 PM529450.33-6.08w13.9--
2:55 PM519649.9-5.21wsw19.99--
1:55 PM519750.18-5.21wsw16.51--
12:55 PM529751.17-3.48wsw13.03--
11:55 AM519750.18-6.95wsw14.77--
10:55 AM529751.17-6.08sw13.03--
9:55 AM529751.17-1.74wsw8.69--
8:55 AM519850.45-3.48w8.69--
7:55 AM509749.18-6.08w14.77--
6:55 AM509648.9-6.08wsw11.3--
5:55 AM509849.46-4.34nw13.03--
4:55 AM509348.06-6.95wnw13.03--
3:55 AM519449.33-6.08wsw10.43--
2:55 AM519549.62-4.34wsw13.03--
1:55 AM519549.62-6.95wsw14.77--
12:55 AM519649.9-1.74w6.95--
High: 62ºf @1:55 PM    Low: 45ºf @6:55 AM     Approx. Precipitation / Rain Total: in.
Time (PST)Temp. (ºf)Humidity (%)Dew Point (ºf)Barometer (inHG)Wind Speed (mph)Wind DirectionWind Gust (mph)1hr. Precip / Rain Total (in.)Snow Depth
11:55 PM519649.9-3.48wsw8.69--
10:55 PM509648.9-2.61wnw7.82--
9:55 PM519750.18-3.48w9.56--
8:55 PM519850.45-2.61nnw6.08--
7:55 PM538047-4.34w8.69--
6:55 PM547646.61-5.21wsw10.43--
5:55 PM556945.02-4.34wsw12.17--
4:55 PM566745.2-5.21wsw10.43--
3:55 PM586345.47-6.95wsw12.17--
2:55 PM625143.66-7.82sw13.9--
1:55 PM624842.08-6.95sw13.9--
12:55 PM595643.32-4.34wsw11.3--
11:55 AM585742.85-4.34sw8.69--
10:55 AM575942.81-3.48ssw8.69--
9:55 AM576545.35-2.61sw7.82--
8:55 AM557045.4-4.34sw7.82--
7:55 AM527845.36---2.61--
6:55 AM459443.38-0.87ne4.34--
5:55 AM459343.1-2.61nne4.34--
4:55 AM469444.37-0.87nw3.48--
3:55 AM498945.9-1.74n3.48--
2:55 AM499246.78-2.61nw6.95--
1:55 AM499647.91-1.74wsw4.34--
12:55 AM489747.19-1.74w6.08--
High: 62ºf @1:55 PM    Low: 45ºf @2:55 AM     Approx. Precipitation / Rain Total: in.
Time (PST)Temp. (ºf)Humidity (%)Dew Point (ºf)Barometer (inHG)Wind Speed (mph)Wind DirectionWind Gust (mph)1hr. Precip / Rain Total (in.)Snow Depth
11:55 PM509348.06-2.61w7.82--
10:55 PM509247.77-3.48sw8.69--
9:55 PM528748.25-5.21w9.56--
8:55 PM528647.94-4.34w8.69--
7:55 PM538448.3-4.34w8.69--
6:55 PM548248.63-5.21wsw9.56--
5:55 PM547847.3-5.21wsw10.43--
4:55 PM577348.43-5.21w11.3--
3:55 PM606749.01-6.08wsw13.03--
2:55 PM626248.83-6.08sw10.43--
1:55 PM626047.95-4.34ssw9.56--
12:55 PM616247.88-4.34sw9.56--
11:55 AM587449.76-3.48s6.95--
10:55 AM578251.56-1.74sse5.21--
9:55 AM558951.82-1.74sse6.08--
8:55 AM529550.61-2.61nnw3.48--
7:55 AM519449.33---0.87--
6:55 AM519549.62---0.87--
5:55 AM519649.9---1.74--
4:55 AM509849.46---2.61--
3:55 AM489847.46-0.87ne5.21--
2:55 AM459944.74---3.48--
1:55 AM459944.74---3.48--
12:55 AM469745.2-0.87ne3.48--
High: 71ºf @2:55 PM    Low: 45ºf @3:55 AM     Approx. Precipitation / Rain Total: in.
Time (PST)Temp. (ºf)Humidity (%)Dew Point (ºf)Barometer (inHG)Wind Speed (mph)Wind DirectionWind Gust (mph)1hr. Precip / Rain Total (in.)Snow Depth
11:55 PM489546.64-0.87ne2.61--
10:55 PM499547.63-1.74nne4.34--
9:55 PM499246.78-2.61nne4.34--
8:55 PM499647.91-1.74nne5.21--
7:55 PM548549.59-3.48wsw6.08--
6:55 PM568049.92-4.34w8.69--
5:55 PM607050.18-6.08wnw10.43--
4:55 PM665348.37-6.08w13.03--
3:55 PM704447.07-6.95w11.3--
2:55 PM714045.45-6.08w12.17--
1:55 PM713642.69-5.21wsw10.43--
12:55 PM694345.56-5.21sw9.56--
11:55 AM675248.79-3.48ssw6.95--
10:55 AM665951.25-2.61wsw6.08--
9:55 AM646351.15-0.87sse4.34--
8:55 AM616850.36-0.87ssw3.48--
7:55 AM527845.36---4.34--
6:55 AM468742.35-2.61ne5.21--
5:55 AM459443.38-1.74nne6.08--
4:55 AM459343.1-2.61ne5.21--
3:55 AM459443.38-1.74nne5.21--
2:55 AM469344.09-2.61ne4.34--
1:55 AM479445.36-1.74ne6.08--
12:55 AM479746.19-2.61ne5.21--
High: 61ºf @12:55 PM    Low: 48ºf @9:55 PM     Approx. Precipitation / Rain Total: in.
Time (PST)Temp. (ºf)Humidity (%)Dew Point (ºf)Barometer (inHG)Wind Speed (mph)Wind DirectionWind Gust (mph)1hr. Precip / Rain Total (in.)Snow Depth
11:55 PM499447.35-0.87nne6.08--
10:55 PM499547.63-2.61nne6.08--
9:55 PM489847.46-2.61nne5.21--
8:55 PM499848.46-0.87e4.34--
7:55 PM509648.9-0.87ene5.21--
6:55 PM509648.9-2.61n4.34--
5:55 PM548449.27-1.74nw5.21--
4:55 PM587449.76-2.61wsw6.08--
3:55 PM597350.36-2.61wsw6.95--
2:55 PM597049.23-2.61wsw7.82--
1:55 PM587550.12-3.48wsw9.56--
12:55 PM616850.36-1.74sse6.08--
11:55 AM607451.69-0.87sw4.34--
10:55 AM529751.17-0.87ssw5.21--
9:55 AM539651.89-1.74sse4.34--
8:55 AM528848.56-0.87ssw4.34--
7:55 AM509147.48-0.87s5.21--
6:55 AM509348.06-0.87sse8.69--
5:55 AM509548.62-4.34wsw6.08--
4:55 AM509548.62-3.48wsw7.82--
3:55 AM509648.9-3.48sw8.69--
2:55 AM509648.9-2.61wsw6.08--
1:55 AM509648.9-2.61sw4.34--
12:55 AM519649.9-0.87sse3.48--
High: 64ºf @1:55 PM    Low: 48ºf @1:55 AM     Approx. Precipitation / Rain Total: in.
Time (PST)Temp. (ºf)Humidity (%)Dew Point (ºf)Barometer (inHG)Wind Speed (mph)Wind DirectionWind Gust (mph)1hr. Precip / Rain Total (in.)Snow Depth
11:55 PM519649.9-0.87ssw2.61--
10:55 PM519750.18---3.48--
9:55 PM529851.45-0.87ssw2.61--
8:55 PM529650.89---2.61--
7:55 PM529751.17---3.48--
6:55 PM529851.45-1.74sw7.82--
5:55 PM529751.17-5.21wsw9.56--
4:55 PM559152.42-4.34wsw7.82--
3:55 PM577850.21-4.34wnw12.17--
2:55 PM624741.54-2.61wsw4.34--
1:55 PM644843.91-3.48sw7.82--
12:55 PM597149.61-2.61sw5.21--
11:55 AM567648.54-0.87sw7.82--
10:55 AM587048.27-2.61wsw3.48--
9:55 AM577047.31-1.74nnw3.48--
8:55 AM567046.35---3.48--
7:55 AM546944.06-0.87ne5.21--
6:55 AM537344.58-2.61ene6.95--
5:55 AM507943.75-2.61nne5.21--
4:55 AM508144.4-1.74nne5.21--
3:55 AM507743.08---6.08--
2:55 AM498043.1-0.87ne5.21--
1:55 AM488042.13-2.61nne5.21--
12:55 AM507843.41-2.61ne5.21--
High: 67ºf @2:55 PM    Low: 49ºf @9:55 PM     Approx. Precipitation / Rain Total: in.
Time (PST)Temp. (ºf)Humidity (%)Dew Point (ºf)Barometer (inHG)Wind Speed (mph)Wind DirectionWind Gust (mph)1hr. Precip / Rain Total (in.)Snow Depth
11:55 PM507943.75---3.48--
10:55 PM497742.11-1.74nne4.34--
9:55 PM497842.44---3.48--
8:55 PM518045.05-0.87ne4.34--
7:55 PM537846.33-1.74nw4.34--
6:55 PM556643.85-1.74nw4.34--
5:55 PM585441.45-2.61n5.21--
4:55 PM654643.71---3.48--
3:55 PM664443.46-2.61sw7.82--
2:55 PM674142.52-4.34sw8.69--
1:55 PM674343.76-4.34wsw8.69--
12:55 PM654643.71-5.21wsw10.43--
11:55 AM674142.52-3.48sw6.95--
10:55 AM663940.33-2.61ssw6.08--
9:55 AM663839.66-0.87ssw3.48--
8:55 AM634541.32-0.87sse3.48--
7:55 AM546442.1-0.87ne3.48--
6:55 AM506739.48-1.74n3.48--
5:55 AM506639.09-1.74ne4.34--
4:55 AM516539.65-0.87nne4.34--
3:55 AM526239.39-2.61nne4.34--
2:55 AM526440.2-3.48n5.21--
1:55 AM536039.49-0.87nne4.34--
12:55 AM536039.49-3.48n5.21--
High: 73ºf @11:55 AM    Low: 53ºf @6:55 AM     Approx. Precipitation / Rain Total: in.
Time (PST)Temp. (ºf)Humidity (%)Dew Point (ºf)Barometer (inHG)Wind Speed (mph)Wind DirectionWind Gust (mph)1hr. Precip / Rain Total (in.)Snow Depth
11:55 PM545739.11-2.61nne5.21--
10:55 PM545739.11-0.87ne5.21--
9:55 PM545739.11-1.74n5.21--
8:55 PM565339.11-1.74nne6.08--
7:55 PM545839.56---5.21--
6:55 PM595040.39-0.87nne4.34--
5:55 PM605141.82-3.48n5.21--
4:55 PM722937.99-2.61w6.08--
3:55 PM713138.83-3.48wsw7.82--
2:55 PM723139.7-4.34sw8.69--
1:55 PM713340.44-5.21wsw10.43--
12:55 PM722534.25-2.61se7.82--
11:55 AM732535.09-3.48sse7.82--
10:55 AM712533.4-2.61ese6.08--
9:55 AM683942.11-0.87s5.21--
8:55 AM654040.09-0.87w3.48--
7:55 AM575641.46-1.74n3.48--
6:55 AM536139.91-0.87ne3.48--
5:55 AM535738.18-1.74ne3.48--
4:55 AM545136.28-3.48nne4.34--
3:55 AM535537.27---4.34--
2:55 AM555137.21-1.74nne3.48--
1:55 AM555137.21-1.74ne4.34--
12:55 AM564836.59-2.61nne5.21--
High: 75ºf @2:55 PM    Low: 47ºf @2:55 AM     Approx. Precipitation / Rain Total: in.
Time (PST)Temp. (ºf)Humidity (%)Dew Point (ºf)Barometer (inHG)Wind Speed (mph)Wind DirectionWind Gust (mph)1hr. Precip / Rain Total (in.)Snow Depth
11:55 PM555237.7-0.87nne4.34--
10:55 PM554936.19-0.87n3.48--
9:55 PM554835.67-0.87ne6.08--
8:55 PM545136.28-4.34n6.95--
7:55 PM584436.21-3.48nne6.08--
6:55 PM613734.54-3.48nne6.08--
5:55 PM623936.76-3.48nne7.82--
4:55 PM702431.54-3.48wnw10.43--
3:55 PM751929.94-5.21w8.69--
2:55 PM751929.94-5.21wnw7.82--
1:55 PM731928.3-3.48wsw6.08--
12:55 PM741929.12-3.48s7.82--
11:55 AM702936.27-3.48ssw8.69--
10:55 AM682732.77-4.34wsw7.82--
9:55 AM624037.4-3.48wsw6.08--
8:55 AM634340.15-0.87e4.34--
7:55 AM535637.73-0.87nne3.48--
6:55 AM476234.66-0.87e4.34--
5:55 AM485833.94-2.61nne6.08--
4:55 AM495935.3-1.74nne6.08--
3:55 AM477439.15-3.48nne6.08--
2:55 AM477238.45-1.74ne5.21--
1:55 AM495935.3-4.34nne6.08--
12:55 AM495935.3-2.61ne6.95--
High: 67ºf @3:55 PM    Low: 44ºf @6:55 AM     Approx. Precipitation / Rain Total: in.
Time (PST)Temp. (ºf)Humidity (%)Dew Point (ºf)Barometer (inHG)Wind Speed (mph)Wind DirectionWind Gust (mph)1hr. Precip / Rain Total (in.)Snow Depth
11:55 PM496838.9-3.48nne5.21--
10:55 PM497641.77-2.61ene4.34--
9:55 PM507341.69-2.61ne6.08--
8:55 PM517643.7-2.61nne5.21--
7:55 PM518145.38-1.74nne5.21--
5:55 PM556844.63-3.48n5.21--
4:55 PM644743.36-3.48w6.95--
3:55 PM674444.36-4.34w9.56--
2:55 PM664644.62-4.34sw9.56--
1:55 PM654844.83-4.34ssw9.56--
12:55 PM645447.02-5.21sw11.3--
11:55 AM635546.57-4.34sw7.82--
10:55 AM615946.57-2.61sw7.82--
9:55 AM606246.94-1.74ssw4.34--
8:55 AM586947.89-0.87se4.34--
7:55 AM488744.32---4.34--
6:55 AM449241.83-1.74ne4.34--
5:55 AM459443.38-2.61ne4.34--
4:55 AM449743.2-1.74ne3.48--
3:55 AM459343.1-0.87ne5.21--
2:55 AM468942.94-2.61ene5.21--
1:55 AM459443.38-1.74nne6.08--
12:55 AM469444.37-3.48nne5.21--
High: 61ºf @2:55 PM    Low: 46ºf @11:55 PM     Approx. Precipitation / Rain Total: in.
Time (PST)Temp. (ºf)Humidity (%)Dew Point (ºf)Barometer (inHG)Wind Speed (mph)Wind DirectionWind Gust (mph)1hr. Precip / Rain Total (in.)Snow Depth
11:55 PM469644.92-2.61nne4.34--
10:55 PM469845.47-0.87ene4.34--
9:55 PM479746.19-1.74nne5.21--
8:55 PM509648.9-0.87ese4.34--
7:55 PM529149.45-1.74n5.21--
6:55 PM548047.97-3.48w9.56--
5:55 PM577348.43-4.34wsw7.82--
4:55 PM606548.2-3.48sw7.82--
3:55 PM596948.84-4.34w11.3--
2:55 PM616448.73-6.08sw13.03--
1:55 PM607150.57-4.34ssw10.43--
12:55 PM607050.18-5.21wsw8.69--
11:55 AM587650.48-5.21sw8.69--
10:55 AM597651.44-1.74ssw5.21--
9:55 AM577950.55-0.87ssw4.34--
8:55 AM548750.22-2.61ene3.48--
7:55 AM499848.46-3.48n4.34--
6:55 AM479846.46-1.74nne5.21--
5:55 AM499848.46---7.82--
4:55 AM499748.19-5.21wnw10.43--
3:55 AM499748.19---3.48--
2:55 AM499748.19-0.87n2.61--
1:55 AM499848.46-1.74ene2.61--
12:55 AM509749.18-0.87nne2.61--
High: 54ºf @1:55 PM    Low: 50ºf @11:55 PM     Approx. Precipitation / Rain Total: in.
Time (PST)Temp. (ºf)Humidity (%)Dew Point (ºf)Barometer (inHG)Wind Speed (mph)Wind DirectionWind Gust (mph)1hr. Precip / Rain Total (in.)Snow Depth
11:55 PM509849.46-1.74nnw3.48--
10:55 PM509849.46-0.87nne2.61--
9:55 PM509849.46-0.87nne4.34--
8:55 PM509849.46---2.61--
7:55 PM519850.45-1.74nne5.21--
6:55 PM519850.45-2.61e6.95--
5:55 PM529851.45-0.87ese7.82--
4:55 PM539852.45-0.87ese9.56--
3:55 PM539852.45-2.61ene5.21--
2:55 PM549753.17---2.61--
1:55 PM549753.17-0.87ne6.95--
12:55 PM549853.45-2.61ese13.03--
11:55 AM539852.45-5.21ene11.3--
10:55 AM539752.17-4.34e11.3--
9:55 AM529751.17-5.21ene8.69--
8:55 AM539852.45-3.48ese9.56--
7:55 AM529751.17-0.87ene5.21--
6:55 AM519850.45-0.87ne6.08--
5:55 AM519750.18-0.87e6.08--
4:55 AM519850.45-0.87se7.82--
3:55 AM519850.45-3.48ene8.69--
2:55 AM519850.45-2.61ene7.82--
1:55 AM519850.45-1.74sse6.95--
12:55 AM519850.45-2.61nne6.08--
High: 55ºf @10:55 AM    Low: 51ºf @5:55 AM     Approx. Precipitation / Rain Total: in.
Time (PST)Temp. (ºf)Humidity (%)Dew Point (ºf)Barometer (inHG)Wind Speed (mph)Wind DirectionWind Gust (mph)1hr. Precip / Rain Total (in.)Snow Depth
11:55 PM519750.18-4.34e7.82--
10:55 PM529550.61-1.74ene5.21--
9:55 PM529650.89-0.87e4.34--
8:55 PM519649.9---1.74--
7:55 PM519750.18---3.48--
6:55 PM519750.18-2.61w4.34--
5:55 PM529751.17-0.87nnw3.48--
4:55 PM529851.45-3.48w6.95--
3:55 PM529751.17-2.61wnw7.82--
2:55 PM539752.17-3.48wsw8.69--
1:55 PM539852.45-4.34wsw11.3--
12:55 PM549753.17-3.48wsw6.08--
11:55 AM559553.59-1.74sw4.34--
10:55 AM559353.01-1.74ssw5.21--
9:55 AM539852.45-2.61nw6.95--
8:55 AM529851.45-0.87nnw3.48--
7:55 AM529751.17-0.87n3.48--
6:55 AM519750.18-1.74n3.48--
5:55 AM519750.18-2.61nne4.34--
4:55 AM519850.45-1.74n3.48--
3:55 AM529851.45-1.74wnw3.48--
2:55 AM529851.45-0.87sw5.21--
1:55 AM529851.45-1.74sw3.48--
12:55 AM539852.45---2.61--
High: 64ºf @1:55 PM    Low: 43ºf @6:55 AM     Approx. Precipitation / Rain Total: in.
Time (PST)Temp. (ºf)Humidity (%)Dew Point (ºf)Barometer (inHG)Wind Speed (mph)Wind DirectionWind Gust (mph)1hr. Precip / Rain Total (in.)Snow Depth
11:55 PM539852.45-0.87nne2.61--
10:55 PM539752.17---1.74--
9:55 PM539250.74-0.87nnw4.34--
8:55 PM539050.15---4.34--
7:55 PM548750.22---2.61--
6:55 PM558249.61-2.61nnw5.21--
5:55 PM567949.58-2.61wnw8.69--
4:55 PM577549.15-5.21wsw11.3--
3:55 PM606749.01-5.21wsw11.3--
2:55 PM606447.78-6.08wsw10.43--
1:55 PM645748.46-4.34sw10.43--
12:55 PM626047.95-6.08sw10.43--
11:55 AM616348.31-3.48ssw10.43--
10:55 AM596848.45-4.34sw8.69--
9:55 AM557948.61-1.74s5.21--
8:55 AM538548.61-0.87ese2.61--
7:55 AM469544.65---2.61--
6:55 AM439541.67-0.87nne4.34--
5:55 AM449743.2-1.74ne4.34--
4:55 AM469845.47-1.74nne5.21--
3:55 AM489847.46-3.48wnw6.08--
2:55 AM469745.2-1.74n5.21--
1:55 AM499848.46-1.74nne5.21--
12:55 AM509849.46---3.48--
High: 62ºf @2:55 PM    Low: 43ºf @6:55 AM     Approx. Precipitation / Rain Total: in.
Time (PST)Temp. (ºf)Humidity (%)Dew Point (ºf)Barometer (inHG)Wind Speed (mph)Wind DirectionWind Gust (mph)1hr. Precip / Rain Total (in.)Snow Depth
11:55 PM509448.34-0.87ese5.21--
10:55 PM509849.46-0.87se8.69--
9:55 PM509849.46-5.21w10.43--
8:55 PM499848.46-4.34w7.82--
7:55 PM519449.33-4.34wsw9.56--
6:55 PM519449.33-3.48wsw7.82--
5:55 PM538448.3-3.48w7.82--
4:55 PM577549.15-5.21w9.56--
3:55 PM616950.75-5.21sw9.56--
2:55 PM627152.48-4.34sw7.82--
1:55 PM627252.87-3.48sw6.08--
12:55 PM588051.86-3.48ssw6.95--
11:55 AM588051.86-3.48sw6.95--
10:55 AM568752.18-0.87s5.21--
9:55 AM529450.33-1.74ssw4.34--
8:55 AM499848.46-1.74ssw4.34--
7:55 AM469845.47---1.74--
6:55 AM439441.39---3.48--
5:55 AM449141.54-0.87ne3.48--
4:55 AM459242.82-0.87nne3.48--
3:55 AM469143.52-0.87ne5.21--
2:55 AM479044.22-0.87ne3.48--
1:55 AM468942.94---4.34--
12:55 AM478442.42-1.74ne4.34--
High: 68ºf @1:55 PM    Low: 44ºf @12:55 AM     Approx. Precipitation / Rain Total: in.
Time (PST)Temp. (ºf)Humidity (%)Dew Point (ºf)Barometer (inHG)Wind Speed (mph)Wind DirectionWind Gust (mph)1hr. Precip / Rain Total (in.)Snow Depth
11:55 PM478442.42-0.87ne3.48--
10:55 PM498043.1-2.61nne3.48--
9:55 PM498544.69-0.87nne2.61--
8:55 PM507943.75-0.87ne3.48--
7:55 PM518245.7---4.34--
6:55 PM528647.94-1.74nnw5.21--
5:55 PM587750.83-2.61w8.69--
4:55 PM644944.45-4.34w9.56--
3:55 PM674645.53-3.48wsw8.69--
2:55 PM664946.28-3.48wsw8.69--
1:55 PM684244.04-3.48sw9.56--
12:55 PM655146.42-3.48wsw6.08--
11:55 AM665046.82-1.74ssw6.08--
10:55 AM636149.33-2.61ssw6.08--
9:55 AM587148.65-2.61ssw5.21--
8:55 AM558048.94-0.87ese4.34--
7:55 AM489847.46-1.74n4.34--
6:55 AM459944.74-2.61nne4.34--
5:55 AM449943.74-2.61nne6.08--
4:55 AM469945.73-3.48n6.08--
3:55 AM469945.73-2.61n6.08--
2:55 AM469945.73-2.61nne5.21--
1:55 AM459944.74-3.48n5.21--
12:55 AM449843.47---4.34--
High: 64ºf @3:55 PM    Low: 41ºf @3:55 AM     Approx. Precipitation / Rain Total: in.
Time (PST)Temp. (ºf)Humidity (%)Dew Point (ºf)Barometer (inHG)Wind Speed (mph)Wind DirectionWind Gust (mph)1hr. Precip / Rain Total (in.)Snow Depth
11:55 PM459643.93-1.74n3.48--
10:55 PM469745.2---4.34--
8:55 PM479545.64-0.87nne3.48--
7:55 PM509749.18-1.74nw3.48--
6:55 PM538849.54-1.74w8.69--
5:55 PM557547.22-3.48w7.82--
4:55 PM605945.63-4.34wsw11.3--
3:55 PM645346.52-5.21wsw9.56--
2:55 PM645246.02-5.21wsw9.56--
1:55 PM635144.58-4.34sw9.56--
12:55 PM625445.16-4.34sw9.56--
11:55 AM606046.07-6.08sw9.56--
10:55 AM586546.3-2.61s6.95--
9:55 AM567146.73-2.61sw5.21--
8:55 AM557346.5-0.87sse2.61--
7:55 AM469243.81-1.74ene3.48--
6:55 AM439842.47-1.74nne5.21--
5:55 AM449743.2-2.61nne4.34--
4:55 AM439742.21-1.74ne4.34--
3:55 AM419840.48-0.87n4.34--
2:55 AM439842.47-1.74ne4.34--
1:55 AM439541.67-2.61nne4.34--
12:55 AM439441.39-0.87ne4.34--
High: 62ºf @3:55 PM    Low: 44ºf @11:55 PM     Approx. Precipitation / Rain Total: in.
Time (PST)Temp. (ºf)Humidity (%)Dew Point (ºf)Barometer (inHG)Wind Speed (mph)Wind DirectionWind Gust (mph)1hr. Precip / Rain Total (in.)Snow Depth
11:55 PM449442.39-2.61n4.34--
10:55 PM449342.11-0.87ne2.61--
9:55 PM459242.82-1.74nne3.48--
8:55 PM469243.81-0.87ene3.48--
7:55 PM488543.71-0.87n3.48--
6:55 PM518045.05-1.74n4.34--
5:55 PM527243.26-3.48n5.21--
4:55 PM605342.82-2.61wsw6.95--
3:55 PM624942.62-3.48wsw9.56--
2:55 PM624842.08-3.48ssw8.69--
1:55 PM614941.7-4.34sw10.43--
12:55 PM595341.89-5.21ssw10.43--
11:55 AM576043.25-4.34sw7.82--
10:55 AM566745.2-2.61sw6.95--
9:55 AM557045.4-2.61sse5.21--
8:55 AM518145.38---4.34--
7:55 AM489546.64---2.61--
6:55 AM479946.73---3.48--
5:55 AM479946.73---2.61--
4:55 AM479746.19---2.61--
3:55 AM479946.73---1.74--
2:55 AM469945.73---2.61--
1:55 AM479545.64---2.61--
12:55 AM479345.08-2.61nne4.34--
High: 65ºf @2:55 PM    Low: 40ºf @5:55 AM     Approx. Precipitation / Rain Total: in.
Time (PST)Temp. (ºf)Humidity (%)Dew Point (ºf)Barometer (inHG)Wind Speed (mph)Wind DirectionWind Gust (mph)1hr. Precip / Rain Total (in.)Snow Depth
11:55 PM459643.93-2.61n4.34--
10:55 PM439541.67-2.61n3.48--
9:55 PM449542.66-2.61nne4.34--
8:55 PM469243.81-2.61nw4.34--
7:55 PM499347.06-1.74wsw5.21--
6:55 PM518245.7-4.34w7.82--
5:55 PM546642.9-3.48w11.3--
4:55 PM595241.4-5.21sw11.3--
3:55 PM634038.3-5.21wsw10.43--
2:55 PM653738.09-4.34sw12.17--
1:55 PM643837.88-4.34sw10.43--
12:55 PM634138.93-4.34wsw8.69--
11:55 AM604538.6-2.61ssw6.95--
10:55 AM594537.69-2.61sw6.08--
9:55 AM574636.43-1.74s6.08--
8:55 AM554534.05-0.87s2.61--
7:55 AM456433.57-0.87s3.48--
6:55 AM417031.98-2.61ne5.21--
5:55 AM407633.06-1.74ne4.34--
4:55 AM417132.33-1.74nne2.61--
3:55 AM436732.8-1.74ne4.34--
2:55 AM427032.94-1.74n2.61--
1:55 AM446533-1.74nne4.34--
12:55 AM436732.8-1.74ne4.34--
High: 65ºf @3:55 PM    Low: 37ºf @5:55 AM     Approx. Precipitation / Rain Total: in.
Time (PST)Temp. (ºf)Humidity (%)Dew Point (ºf)Barometer (inHG)Wind Speed (mph)Wind DirectionWind Gust (mph)1hr. Precip / Rain Total (in.)Snow Depth
11:55 PM436833.17-1.74ene5.21--
10:55 PM436732.8-2.61n4.34--
9:55 PM456333.17-2.61ene5.21--
8:55 PM466434.51-0.87ne3.48--
7:55 PM485733.5-1.74ne4.34--
6:55 PM515033.02-1.74ne4.34--
5:55 PM534331.11-2.61nne4.34--
4:55 PM632728.5-2.61wnw6.95--
3:55 PM652225.23-3.48wsw8.69--
2:55 PM652124.12-3.48sw11.3--
1:55 PM642426.49-6.08sw12.17--
12:55 PM632728.5-5.21wsw11.3--
11:55 AM612322.94-6.08sw10.43--
10:55 AM602826.81-3.48ssw6.95--
9:55 AM573529.62-3.48ssw6.95--
8:55 AM563327.31---2.61--
7:55 AM446332.23-1.74e5.21--
6:55 AM397230.75-2.61nne5.21--
5:55 AM377931.1-1.74nne4.34--
4:55 AM387430.46-1.74ne4.34--
3:55 AM397030.06-1.74nne6.08--
2:55 AM416530.15-2.61ne5.21--
1:55 AM426531.1-1.74ne4.34--
12:55 AM417031.98-0.87ne2.61--
High: 63ºf @3:55 PM    Low: 38ºf @6:55 AM     Approx. Precipitation / Rain Total: in.
Time (PST)Temp. (ºf)Humidity (%)Dew Point (ºf)Barometer (inHG)Wind Speed (mph)Wind DirectionWind Gust (mph)1hr. Precip / Rain Total (in.)Snow Depth
11:55 PM436431.67-1.74nne5.21--
10:55 PM436732.8-2.61ne5.21--
9:55 PM446432.62-1.74nne4.34--
8:55 PM446533-0.87nne3.48--
7:55 PM465832.06-0.87ene6.95--
6:55 PM504630.04-5.21wnw8.69--
5:55 PM504931.6-3.48n6.95--
4:55 PM602927.66-3.48w6.95--
3:55 PM632526.63-4.34wsw8.69--
2:55 PM632425.64-4.34ssw7.82--
1:55 PM622424.8-3.48sw9.56--
12:55 PM612524.93-3.48ssw9.56--
11:55 AM602625.02-5.21sw9.56--
10:55 AM583026.75-4.34sw7.82--
9:55 AM573328.19-0.87wsw4.34--
8:55 AM523525.21-1.74sw4.34--
7:55 AM427032.94---2.61--
6:55 AM386828.39-2.61nne4.34--
5:55 AM416228.99-1.74nne6.08--
4:55 AM416329.38-2.61nne5.21--
3:55 AM416429.77-4.34nne6.08--
2:55 AM426129.54-2.61nne6.08--
1:55 AM426531.1-1.74ne3.48--
12:55 AM426631.48-1.74ne4.34--
High: 60ºf @3:55 PM    Low: 39ºf @2:55 AM     Approx. Precipitation / Rain Total: in.
Time (PST)Temp. (ºf)Humidity (%)Dew Point (ºf)Barometer (inHG)Wind Speed (mph)Wind DirectionWind Gust (mph)1hr. Precip / Rain Total (in.)Snow Depth
11:55 PM436130.48-2.61nne4.34--
10:55 PM436331.28-2.61ne4.34--
9:55 PM446031.02-2.61ne4.34--
8:55 PM426731.85-2.61nne4.34--
7:55 PM465530.75-2.61ene6.08--
6:55 PM475732.57-2.61nne5.21--
5:55 PM485532.61-3.48nne5.21--
4:55 PM583429.79-3.48w6.95--
3:55 PM603129.28-2.61ssw8.69--
2:55 PM593229.19-5.21sw9.56--
1:55 PM593632.09-6.08w13.03--
12:55 PM593934.08-3.48ssw9.56--
11:55 AM564635.51-5.21wsw9.56--
10:55 AM545136.28-4.34wsw11.3--
9:55 AM536139.91-2.61ssw7.82--
8:55 AM506739.48-2.61wsw6.08--
7:55 AM428337.22-0.87ne4.34--
6:55 AM398735.46-2.61nne6.08--
5:55 AM398835.75-3.48nne5.21--
4:55 AM408636.16-1.74nne5.21--
3:55 AM408636.16-0.87nne8.69--
2:55 AM398936.04-3.48nne6.95--
1:55 AM399637.96-1.74ne4.34--
12:55 AM399537.69-0.87nne3.48--
High: 57ºf @12:55 PM    Low: 39ºf @11:55 PM     Approx. Precipitation / Rain Total: in.
Time (PST)Temp. (ºf)Humidity (%)Dew Point (ºf)Barometer (inHG)Wind Speed (mph)Wind DirectionWind Gust (mph)1hr. Precip / Rain Total (in.)Snow Depth
11:55 PM399537.69-1.74nne3.48--
10:55 PM409739.22-0.87n5.21--
9:55 PM419539.68-3.48nne6.08--
8:55 PM439040.27-0.87n3.48--
7:55 PM468240.82-1.74wsw6.95--
6:55 PM498344.06-3.48wsw7.82--
5:55 PM497742.11-3.48wsw7.82--
4:55 PM526540.6-4.34wsw9.56--
3:55 PM545337.26-3.48w8.69--
2:55 PM545236.78-3.48wnw6.95--
1:55 PM545337.26-2.61w7.82--
12:55 PM575038.55-2.61se8.69--
11:55 AM555639.59-3.48sse7.82--
10:55 AM546341.69-0.87ese6.95--
9:55 AM517543.36-1.74ese6.08--
8:55 AM507843.41-1.74se6.08--
7:55 AM439441.39-0.87e3.48--
6:55 AM419940.74-1.74ne3.48--
5:55 AM4010040-0.87ne2.61--
4:55 AM4010040-0.87ne3.48--
3:55 AM4010040-0.87ene3.48--
2:55 AM429941.74---2.61--
1:55 AM439942.74---1.74--
12:55 AM449943.74-0.87n4.34--
High: 47ºf @6:55 PM    Low: 44ºf @11:55 PM     Approx. Precipitation / Rain Total: in.
Time (PST)Temp. (ºf)Humidity (%)Dew Point (ºf)Barometer (inHG)Wind Speed (mph)Wind DirectionWind Gust (mph)1hr. Precip / Rain Total (in.)Snow Depth
11:55 PM449843.47-0.87ne3.48--
10:55 PM449442.39-1.74nne5.21--
9:55 PM459343.1---6.08--
8:55 PM469143.52-2.61nnw5.21--
7:55 PM468040.18---4.34--
6:55 PM477238.45-0.87nne3.48--
5:55 PM477138.09-1.74n3.48--
Past Weather Disclaimer Note regarding "Approx. Precipitation / Rain Total"

Currently

Mostly Cloudy 57°F
30.00in
Barometer
55%
Humidity
West 15.0mph
Wind
Mostly Cloudy

Past Weather Nearby

More Local Information

Bookmark and Share